sensor_id;sensor_type;location;lat;lon;timestamp;P1;durP1;ratioP1;P2;durP2;ratioP2
59468;SDS011;45277;52.768;18.262;2023-02-23T00:01:23;18.58;;;9.23;;
59468;SDS011;45277;52.768;18.262;2023-02-23T00:02:57;20.38;;;8.93;;
59468;SDS011;45277;52.768;18.262;2023-02-23T00:04:32;15.30;;;9.25;;
59468;SDS011;45277;52.768;18.262;2023-02-23T00:06:07;18.48;;;9.43;;
59468;SDS011;45277;52.768;18.262;2023-02-23T00:07:40;14.25;;;8.70;;
59468;SDS011;45277;52.768;18.262;2023-02-23T00:09:14;20.58;;;9.13;;
59468;SDS011;45277;52.768;18.262;2023-02-23T00:10:52;18.83;;;8.68;;
59468;SDS011;45277;52.768;18.262;2023-02-23T00:12:29;19.45;;;8.85;;
59468;SDS011;45277;52.768;18.262;2023-02-23T00:14:01;16.80;;;8.68;;
59468;SDS011;45277;52.768;18.262;2023-02-23T00:15:33;15.80;;;8.75;;
59468;SDS011;45277;52.768;18.262;2023-02-23T00:17:06;18.70;;;9.48;;
59468;SDS011;45277;52.768;18.262;2023-02-23T00:18:44;16.40;;;7.88;;
59468;SDS011;45277;52.768;18.262;2023-02-23T00:20:21;17.67;;;8.57;;
59468;SDS011;45277;52.768;18.262;2023-02-23T00:21:59;15.25;;;7.72;;
59468;SDS011;45277;52.768;18.262;2023-02-23T00:23:31;17.05;;;8.75;;
59468;SDS011;45277;52.768;18.262;2023-02-23T00:25:02;14.70;;;8.75;;
59468;SDS011;45277;52.768;18.262;2023-02-23T00:26:38;17.50;;;9.23;;
59468;SDS011;45277;52.768;18.262;2023-02-23T00:28:10;17.17;;;8.65;;
59468;SDS011;45277;52.768;18.262;2023-02-23T00:29:41;25.50;;;9.25;;
59468;SDS011;45277;52.768;18.262;2023-02-23T00:31:12;19.67;;;9.23;;
59468;SDS011;45277;52.768;18.262;2023-02-23T00:32:44;19.50;;;8.23;;
59468;SDS011;45277;52.768;18.262;2023-02-23T00:34:17;14.82;;;7.68;;
59468;SDS011;45277;52.768;18.262;2023-02-23T00:35:53;16.75;;;7.95;;
59468;SDS011;45277;52.768;18.262;2023-02-23T00:37:25;19.27;;;8.77;;
59468;SDS011;45277;52.768;18.262;2023-02-23T00:38:57;17.95;;;9.23;;
59468;SDS011;45277;52.768;18.262;2023-02-23T00:40:30;15.43;;;8.13;;
59468;SDS011;45277;52.768;18.262;2023-02-23T00:42:02;17.63;;;8.68;;
59468;SDS011;45277;52.768;18.262;2023-02-23T00:43:36;17.30;;;9.23;;
59468;SDS011;45277;52.768;18.262;2023-02-23T00:45:09;16.58;;;8.55;;
59468;SDS011;45277;52.768;18.262;2023-02-23T00:46:44;17.98;;;9.15;;
59468;SDS011;45277;52.768;18.262;2023-02-23T00:48:18;15.77;;;9.23;;
59468;SDS011;45277;52.768;18.262;2023-02-23T00:49:49;19.05;;;8.98;;
59468;SDS011;45277;52.768;18.262;2023-02-23T00:51:21;15.07;;;9.23;;
59468;SDS011;45277;52.768;18.262;2023-02-23T00:52:56;16.05;;;8.15;;
59468;SDS011;45277;52.768;18.262;2023-02-23T00:54:29;16.13;;;8.75;;
59468;SDS011;45277;52.768;18.262;2023-02-23T00:56:03;18.80;;;8.80;;
59468;SDS011;45277;52.768;18.262;2023-02-23T00:57:35;18.50;;;8.52;;
59468;SDS011;45277;52.768;18.262;2023-02-23T00:59:06;15.70;;;9.07;;
59468;SDS011;45277;52.768;18.262;2023-02-23T01:00:38;16.85;;;7.53;;
59468;SDS011;45277;52.768;18.262;2023-02-23T01:02:11;17.65;;;8.73;;
59468;SDS011;45277;52.768;18.262;2023-02-23T01:03:43;14.30;;;8.32;;
59468;SDS011;45277;52.768;18.262;2023-02-23T01:05:15;15.32;;;7.85;;
59468;SDS011;45277;52.768;18.262;2023-02-23T01:06:47;15.45;;;8.63;;
59468;SDS011;45277;52.768;18.262;2023-02-23T01:08:19;14.63;;;7.32;;
59468;SDS011;45277;52.768;18.262;2023-02-23T01:09:52;20.20;;;9.60;;
59468;SDS011;45277;52.768;18.262;2023-02-23T01:11:24;16.80;;;8.50;;
59468;SDS011;45277;52.768;18.262;2023-02-23T01:12:57;18.08;;;8.80;;
59468;SDS011;45277;52.768;18.262;2023-02-23T01:14:29;17.48;;;8.55;;
59468;SDS011;45277;52.768;18.262;2023-02-23T01:16:03;13.95;;;8.60;;
59468;SDS011;45277;52.768;18.262;2023-02-23T01:17:38;17.45;;;9.18;;
59468;SDS011;45277;52.768;18.262;2023-02-23T01:19:10;17.63;;;8.80;;
59468;SDS011;45277;52.768;18.262;2023-02-23T01:20:41;16.50;;;8.50;;
59468;SDS011;45277;52.768;18.262;2023-02-23T01:22:13;18.30;;;9.13;;
59468;SDS011;45277;52.768;18.262;2023-02-23T01:23:45;17.08;;;8.20;;
59468;SDS011;45277;52.768;18.262;2023-02-23T01:25:17;16.08;;;8.68;;
59468;SDS011;45277;52.768;18.262;2023-02-23T01:26:48;15.68;;;8.63;;
59468;SDS011;45277;52.768;18.262;2023-02-23T01:28:20;17.30;;;8.43;;
59468;SDS011;45277;52.768;18.262;2023-02-23T01:29:52;18.27;;;8.43;;
59468;SDS011;45277;52.768;18.262;2023-02-23T01:31:24;17.42;;;8.82;;
59468;SDS011;45277;52.768;18.262;2023-02-23T01:32:56;16.77;;;9.48;;
59468;SDS011;45277;52.768;18.262;2023-02-23T01:34:28;18.35;;;9.32;;
59468;SDS011;45277;52.768;18.262;2023-02-23T01:35:59;17.73;;;8.02;;
59468;SDS011;45277;52.768;18.262;2023-02-23T01:37:34;17.48;;;9.15;;
59468;SDS011;45277;52.768;18.262;2023-02-23T01:39:11;16.60;;;8.85;;
59468;SDS011;45277;52.768;18.262;2023-02-23T01:40:44;18.35;;;8.90;;
59468;SDS011;45277;52.768;18.262;2023-02-23T01:42:17;18.10;;;9.65;;
59468;SDS011;45277;52.768;18.262;2023-02-23T01:44:00;19.95;;;9.40;;
59468;SDS011;45277;52.768;18.262;2023-02-23T01:45:43;15.55;;;8.55;;
59468;SDS011;45277;52.768;18.262;2023-02-23T01:47:15;15.65;;;7.85;;
59468;SDS011;45277;52.768;18.262;2023-02-23T01:48:49;18.73;;;9.43;;
59468;SDS011;45277;52.768;18.262;2023-02-23T01:50:26;15.73;;;8.63;;
59468;SDS011;45277;52.768;18.262;2023-02-23T01:52:05;16.73;;;8.65;;
59468;SDS011;45277;52.768;18.262;2023-02-23T01:53:54;17.77;;;8.65;;
59468;SDS011;45277;52.768;18.262;2023-02-23T01:55:50;14.52;;;8.13;;
59468;SDS011;45277;52.768;18.262;2023-02-23T01:57:31;13.55;;;8.43;;
59468;SDS011;45277;52.768;18.262;2023-02-23T01:59:04;14.50;;;8.30;;
59468;SDS011;45277;52.768;18.262;2023-02-23T02:00:37;16.90;;;9.52;;
59468;SDS011;45277;52.768;18.262;2023-02-23T02:02:10;18.90;;;9.85;;
59468;SDS011;45277;52.768;18.262;2023-02-23T02:03:47;17.92;;;9.55;;
59468;SDS011;45277;52.768;18.262;2023-02-23T02:05:27;17.58;;;8.98;;
59468;SDS011;45277;52.768;18.262;2023-02-23T02:07:00;18.90;;;9.45;;
59468;SDS011;45277;52.768;18.262;2023-02-23T02:08:33;18.83;;;9.35;;
59468;SDS011;45277;52.768;18.262;2023-02-23T02:10:14;22.85;;;9.30;;
59468;SDS011;45277;52.768;18.262;2023-02-23T02:11:46;15.80;;;8.63;;
59468;SDS011;45277;52.768;18.262;2023-02-23T02:13:27;14.20;;;8.32;;
59468;SDS011;45277;52.768;18.262;2023-02-23T02:15:00;15.70;;;9.25;;
59468;SDS011;45277;52.768;18.262;2023-02-23T02:16:59;14.85;;;8.27;;
59468;SDS011;45277;52.768;18.262;2023-02-23T02:23:01;18.23;;;10.00;;
59468;SDS011;45277;52.768;18.262;2023-02-23T02:27:00;17.00;;;9.32;;
59468;SDS011;45277;52.768;18.262;2023-02-23T02:28:40;16.35;;;8.23;;
59468;SDS011;45277;52.768;18.262;2023-02-23T02:34:47;16.92;;;10.02;;
59468;SDS011;45277;52.768;18.262;2023-02-23T02:40:25;18.63;;;10.00;;
59468;SDS011;45277;52.768;18.262;2023-02-23T02:42:28;14.82;;;8.20;;
59468;SDS011;45277;52.768;18.262;2023-02-23T02:44:20;16.65;;;8.85;;
59468;SDS011;45277;52.768;18.262;2023-02-23T02:51:38;15.80;;;7.70;;
59468;SDS011;45277;52.768;18.262;2023-02-23T02:53:21;17.70;;;9.07;;
59468;SDS011;45277;52.768;18.262;2023-02-23T02:55:14;16.75;;;9.75;;
59468;SDS011;45277;52.768;18.262;2023-02-23T02:56:53;16.35;;;7.45;;
59468;SDS011;45277;52.768;18.262;2023-02-23T02:58:30;14.35;;;8.27;;
59468;SDS011;45277;52.768;18.262;2023-02-23T03:00:03;18.85;;;9.80;;
59468;SDS011;45277;52.768;18.262;2023-02-23T03:01:53;15.82;;;8.77;;
59468;SDS011;45277;52.768;18.262;2023-02-23T03:03:43;16.67;;;9.93;;
59468;SDS011;45277;52.768;18.262;2023-02-23T03:05:39;18.60;;;9.25;;
59468;SDS011;45277;52.768;18.262;2023-02-23T03:07:35;16.88;;;9.13;;
59468;SDS011;45277;52.768;18.262;2023-02-23T03:10:35;16.08;;;8.70;;
59468;SDS011;45277;52.768;18.262;2023-02-23T03:12:10;17.48;;;10.13;;
59468;SDS011;45277;52.768;18.262;2023-02-23T03:20:14;19.13;;;9.30;;
59468;SDS011;45277;52.768;18.262;2023-02-23T03:22:31;18.13;;;9.65;;
59468;SDS011;45277;52.768;18.262;2023-02-23T03:27:10;20.30;;;9.73;;
59468;SDS011;45277;52.768;18.262;2023-02-23T03:29:06;16.70;;;9.10;;
59468;SDS011;45277;52.768;18.262;2023-02-23T03:31:11;17.38;;;9.27;;
59468;SDS011;45277;52.768;18.262;2023-02-23T03:33:19;15.60;;;9.30;;
59468;SDS011;45277;52.768;18.262;2023-02-23T03:36:03;16.88;;;8.32;;
59468;SDS011;45277;52.768;18.262;2023-02-23T03:38:10;17.65;;;9.18;;
59468;SDS011;45277;52.768;18.262;2023-02-23T03:40:16;14.07;;;9.40;;
59468;SDS011;45277;52.768;18.262;2023-02-23T03:42:11;14.48;;;8.05;;
59468;SDS011;45277;52.768;18.262;2023-02-23T03:44:07;16.27;;;8.48;;
59468;SDS011;45277;52.768;18.262;2023-02-23T03:46:01;15.32;;;9.25;;
59468;SDS011;45277;52.768;18.262;2023-02-23T03:47:55;17.13;;;8.85;;
59468;SDS011;45277;52.768;18.262;2023-02-23T03:49:48;12.98;;;7.75;;
59468;SDS011;45277;52.768;18.262;2023-02-23T03:51:39;16.40;;;7.95;;
59468;SDS011;45277;52.768;18.262;2023-02-23T03:53:32;18.65;;;9.50;;
59468;SDS011;45277;52.768;18.262;2023-02-23T03:55:31;13.73;;;7.63;;
59468;SDS011;45277;52.768;18.262;2023-02-23T03:57:26;15.20;;;9.25;;
59468;SDS011;45277;52.768;18.262;2023-02-23T03:59:18;14.30;;;7.85;;
59468;SDS011;45277;52.768;18.262;2023-02-23T04:01:12;16.20;;;8.60;;
59468;SDS011;45277;52.768;18.262;2023-02-23T04:03:05;18.65;;;8.80;;
59468;SDS011;45277;52.768;18.262;2023-02-23T04:04:57;16.20;;;8.98;;
59468;SDS011;45277;52.768;18.262;2023-02-23T04:06:50;15.45;;;9.15;;
59468;SDS011;45277;52.768;18.262;2023-02-23T04:08:44;14.68;;;8.15;;
59468;SDS011;45277;52.768;18.262;2023-02-23T04:10:35;14.05;;;7.97;;
59468;SDS011;45277;52.768;18.262;2023-02-23T04:12:39;15.50;;;8.43;;
59468;SDS011;45277;52.768;18.262;2023-02-23T04:14:40;14.45;;;7.65;;
59468;SDS011;45277;52.768;18.262;2023-02-23T04:16:18;16.27;;;8.10;;
59468;SDS011;45277;52.768;18.262;2023-02-23T04:17:50;14.65;;;7.97;;
59468;SDS011;45277;52.768;18.262;2023-02-23T04:19:26;14.60;;;8.68;;
59468;SDS011;45277;52.768;18.262;2023-02-23T04:20:59;13.30;;;8.45;;
59468;SDS011;45277;52.768;18.262;2023-02-23T04:22:30;17.02;;;9.00;;
59468;SDS011;45277;52.768;18.262;2023-02-23T04:24:02;14.23;;;8.80;;
59468;SDS011;45277;52.768;18.262;2023-02-23T04:25:34;15.95;;;7.93;;
59468;SDS011;45277;52.768;18.262;2023-02-23T04:27:05;12.45;;;7.95;;
59468;SDS011;45277;52.768;18.262;2023-02-23T04:28:37;14.93;;;8.07;;
59468;SDS011;45277;52.768;18.262;2023-02-23T04:30:08;17.88;;;8.68;;
59468;SDS011;45277;52.768;18.262;2023-02-23T04:31:40;14.48;;;8.07;;
59468;SDS011;45277;52.768;18.262;2023-02-23T04:33:12;13.55;;;8.57;;
59468;SDS011;45277;52.768;18.262;2023-02-23T04:34:44;15.82;;;8.13;;
59468;SDS011;45277;52.768;18.262;2023-02-23T04:36:15;13.98;;;7.20;;
59468;SDS011;45277;52.768;18.262;2023-02-23T04:37:47;12.43;;;7.22;;
59468;SDS011;45277;52.768;18.262;2023-02-23T04:39:18;10.50;;;6.85;;
59468;SDS011;45277;52.768;18.262;2023-02-23T04:40:50;15.30;;;7.68;;
59468;SDS011;45277;52.768;18.262;2023-02-23T04:42:21;14.35;;;8.35;;
59468;SDS011;45277;52.768;18.262;2023-02-23T04:43:53;13.70;;;8.48;;
59468;SDS011;45277;52.768;18.262;2023-02-23T04:45:24;13.63;;;7.20;;
59468;SDS011;45277;52.768;18.262;2023-02-23T04:46:56;12.48;;;7.10;;
59468;SDS011;45277;52.768;18.262;2023-02-23T04:48:28;12.32;;;7.40;;
59468;SDS011;45277;52.768;18.262;2023-02-23T04:49:59;11.82;;;7.47;;
59468;SDS011;45277;52.768;18.262;2023-02-23T04:51:31;12.68;;;6.88;;
59468;SDS011;45277;52.768;18.262;2023-02-23T04:53:03;9.02;;;6.03;;
59468;SDS011;45277;52.768;18.262;2023-02-23T04:54:38;12.88;;;7.22;;
59468;SDS011;45277;52.768;18.262;2023-02-23T04:56:10;11.50;;;6.82;;
59468;SDS011;45277;52.768;18.262;2023-02-23T04:57:41;12.82;;;7.88;;
59468;SDS011;45277;52.768;18.262;2023-02-23T04:59:13;14.40;;;8.15;;
59468;SDS011;45277;52.768;18.262;2023-02-23T05:00:45;12.57;;;7.55;;
59468;SDS011;45277;52.768;18.262;2023-02-23T05:02:16;12.30;;;7.45;;
59468;SDS011;45277;52.768;18.262;2023-02-23T05:03:48;13.35;;;7.38;;
59468;SDS011;45277;52.768;18.262;2023-02-23T05:05:20;13.48;;;7.63;;
59468;SDS011;45277;52.768;18.262;2023-02-23T05:06:52;13.77;;;7.88;;
59468;SDS011;45277;52.768;18.262;2023-02-23T05:08:23;10.05;;;5.65;;
59468;SDS011;45277;52.768;18.262;2023-02-23T05:09:55;17.08;;;7.22;;
59468;SDS011;45277;52.768;18.262;2023-02-23T05:11:26;12.00;;;6.68;;
59468;SDS011;45277;52.768;18.262;2023-02-23T05:12:58;15.27;;;8.15;;
59468;SDS011;45277;52.768;18.262;2023-02-23T05:14:31;16.08;;;8.02;;
59468;SDS011;45277;52.768;18.262;2023-02-23T05:16:02;15.75;;;7.85;;
59468;SDS011;45277;52.768;18.262;2023-02-23T05:17:36;14.82;;;8.25;;
59468;SDS011;45277;52.768;18.262;2023-02-23T05:19:11;13.63;;;7.53;;
59468;SDS011;45277;52.768;18.262;2023-02-23T05:20:43;14.90;;;8.63;;
59468;SDS011;45277;52.768;18.262;2023-02-23T05:22:15;13.82;;;7.53;;
59468;SDS011;45277;52.768;18.262;2023-02-23T05:23:47;15.10;;;8.15;;
59468;SDS011;45277;52.768;18.262;2023-02-23T05:25:18;13.75;;;8.38;;
59468;SDS011;45277;52.768;18.262;2023-02-23T05:26:50;16.48;;;7.35;;
59468;SDS011;45277;52.768;18.262;2023-02-23T05:28:22;11.57;;;6.47;;
59468;SDS011;45277;52.768;18.262;2023-02-23T05:29:53;18.55;;;7.53;;
59468;SDS011;45277;52.768;18.262;2023-02-23T05:31:24;16.77;;;8.63;;
59468;SDS011;45277;52.768;18.262;2023-02-23T05:32:57;13.68;;;7.20;;
59468;SDS011;45277;52.768;18.262;2023-02-23T05:34:28;13.90;;;7.70;;
59468;SDS011;45277;52.768;18.262;2023-02-23T05:36:03;14.13;;;7.97;;
59468;SDS011;45277;52.768;18.262;2023-02-23T05:37:35;12.68;;;7.68;;
59468;SDS011;45277;52.768;18.262;2023-02-23T05:39:06;12.88;;;7.57;;
59468;SDS011;45277;52.768;18.262;2023-02-23T05:40:38;10.35;;;6.18;;
59468;SDS011;45277;52.768;18.262;2023-02-23T05:42:10;15.45;;;7.88;;
59468;SDS011;45277;52.768;18.262;2023-02-23T05:43:41;11.27;;;7.20;;
59468;SDS011;45277;52.768;18.262;2023-02-23T05:45:12;11.75;;;7.15;;
59468;SDS011;45277;52.768;18.262;2023-02-23T05:46:44;16.77;;;9.07;;
59468;SDS011;45277;52.768;18.262;2023-02-23T05:48:17;14.85;;;8.75;;
59468;SDS011;45277;52.768;18.262;2023-02-23T05:49:48;14.80;;;7.78;;
59468;SDS011;45277;52.768;18.262;2023-02-23T05:51:20;18.15;;;9.00;;
59468;SDS011;45277;52.768;18.262;2023-02-23T05:52:51;15.95;;;8.57;;
59468;SDS011;45277;52.768;18.262;2023-02-23T05:54:23;16.75;;;8.25;;
59468;SDS011;45277;52.768;18.262;2023-02-23T05:55:55;15.00;;;9.38;;
59468;SDS011;45277;52.768;18.262;2023-02-23T05:57:26;17.40;;;8.88;;
59468;SDS011;45277;52.768;18.262;2023-02-23T05:58:58;18.23;;;8.50;;
59468;SDS011;45277;52.768;18.262;2023-02-23T06:00:30;18.42;;;9.35;;
59468;SDS011;45277;52.768;18.262;2023-02-23T06:02:02;13.23;;;8.43;;
59468;SDS011;45277;52.768;18.262;2023-02-23T06:03:36;17.08;;;8.65;;
59468;SDS011;45277;52.768;18.262;2023-02-23T06:05:09;15.57;;;8.60;;
59468;SDS011;45277;52.768;18.262;2023-02-23T06:06:41;15.45;;;7.43;;
59468;SDS011;45277;52.768;18.262;2023-02-23T06:08:12;14.77;;;8.10;;
59468;SDS011;45277;52.768;18.262;2023-02-23T06:09:44;12.88;;;7.05;;
59468;SDS011;45277;52.768;18.262;2023-02-23T06:11:15;17.13;;;9.07;;
59468;SDS011;45277;52.768;18.262;2023-02-23T06:12:47;17.35;;;9.82;;
59468;SDS011;45277;52.768;18.262;2023-02-23T06:14:19;16.13;;;8.32;;
59468;SDS011;45277;52.768;18.262;2023-02-23T06:15:50;15.35;;;8.23;;
59468;SDS011;45277;52.768;18.262;2023-02-23T06:17:22;18.73;;;9.70;;
59468;SDS011;45277;52.768;18.262;2023-02-23T06:18:54;17.88;;;9.25;;
59468;SDS011;45277;52.768;18.262;2023-02-23T06:20:25;19.15;;;8.52;;
59468;SDS011;45277;52.768;18.262;2023-02-23T06:21:57;13.75;;;7.43;;
59468;SDS011;45277;52.768;18.262;2023-02-23T06:23:29;17.15;;;8.80;;
59468;SDS011;45277;52.768;18.262;2023-02-23T06:25:02;17.02;;;9.10;;
59468;SDS011;45277;52.768;18.262;2023-02-23T06:26:34;18.55;;;8.90;;
59468;SDS011;45277;52.768;18.262;2023-02-23T06:28:06;16.33;;;8.43;;
59468;SDS011;45277;52.768;18.262;2023-02-23T06:29:38;17.70;;;8.23;;
59468;SDS011;45277;52.768;18.262;2023-02-23T06:31:09;17.33;;;9.20;;
59468;SDS011;45277;52.768;18.262;2023-02-23T06:32:41;17.08;;;9.73;;
59468;SDS011;45277;52.768;18.262;2023-02-23T06:34:13;19.83;;;9.85;;
59468;SDS011;45277;52.768;18.262;2023-02-23T06:35:44;17.92;;;9.40;;
59468;SDS011;45277;52.768;18.262;2023-02-23T06:37:16;18.08;;;9.23;;
59468;SDS011;45277;52.768;18.262;2023-02-23T06:38:47;18.35;;;8.15;;
59468;SDS011;45277;52.768;18.262;2023-02-23T06:40:19;18.85;;;9.13;;
59468;SDS011;45277;52.768;18.262;2023-02-23T06:41:51;17.42;;;8.40;;
59468;SDS011;45277;52.768;18.262;2023-02-23T06:43:22;24.02;;;9.52;;
59468;SDS011;45277;52.768;18.262;2023-02-23T06:44:54;20.65;;;10.57;;
59468;SDS011;45277;52.768;18.262;2023-02-23T06:46:25;20.60;;;9.75;;
59468;SDS011;45277;52.768;18.262;2023-02-23T06:47:57;18.80;;;9.57;;
59468;SDS011;45277;52.768;18.262;2023-02-23T06:49:30;15.68;;;8.70;;
59468;SDS011;45277;52.768;18.262;2023-02-23T06:51:02;21.92;;;9.40;;
59468;SDS011;45277;52.768;18.262;2023-02-23T06:52:34;16.73;;;8.77;;
59468;SDS011;45277;52.768;18.262;2023-02-23T06:54:05;21.75;;;9.80;;
59468;SDS011;45277;52.768;18.262;2023-02-23T06:55:37;16.73;;;8.55;;
59468;SDS011;45277;52.768;18.262;2023-02-23T06:57:09;15.65;;;7.97;;
59468;SDS011;45277;52.768;18.262;2023-02-23T06:58:41;18.55;;;8.70;;
59468;SDS011;45277;52.768;18.262;2023-02-23T07:00:13;14.48;;;8.25;;
59468;SDS011;45277;52.768;18.262;2023-02-23T07:01:46;10.77;;;7.03;;
59468;SDS011;45277;52.768;18.262;2023-02-23T07:03:18;17.52;;;8.95;;
59468;SDS011;45277;52.768;18.262;2023-02-23T07:04:50;18.10;;;9.25;;
59468;SDS011;45277;52.768;18.262;2023-02-23T07:06:21;23.17;;;9.40;;
59468;SDS011;45277;52.768;18.262;2023-02-23T07:07:52;20.52;;;9.15;;
59468;SDS011;45277;52.768;18.262;2023-02-23T07:09:24;20.23;;;9.57;;
59468;SDS011;45277;52.768;18.262;2023-02-23T07:10:56;21.88;;;10.57;;
59468;SDS011;45277;52.768;18.262;2023-02-23T07:12:34;15.18;;;8.90;;
59468;SDS011;45277;52.768;18.262;2023-02-23T07:14:07;18.27;;;8.50;;
59468;SDS011;45277;52.768;18.262;2023-02-23T07:15:40;13.98;;;8.15;;
59468;SDS011;45277;52.768;18.262;2023-02-23T07:17:12;14.50;;;7.95;;
59468;SDS011;45277;52.768;18.262;2023-02-23T07:18:44;19.00;;;10.07;;
59468;SDS011;45277;52.768;18.262;2023-02-23T07:20:15;18.98;;;9.13;;
59468;SDS011;45277;52.768;18.262;2023-02-23T07:21:47;17.80;;;9.20;;
59468;SDS011;45277;52.768;18.262;2023-02-23T07:23:19;16.90;;;8.73;;
59468;SDS011;45277;52.768;18.262;2023-02-23T07:24:51;19.90;;;9.63;;
59468;SDS011;45277;52.768;18.262;2023-02-23T07:26:23;12.98;;;8.30;;
59468;SDS011;45277;52.768;18.262;2023-02-23T07:27:55;17.35;;;8.98;;
59468;SDS011;45277;52.768;18.262;2023-02-23T07:29:28;18.23;;;10.25;;
59468;SDS011;45277;52.768;18.262;2023-02-23T07:30:59;18.85;;;8.77;;
59468;SDS011;45277;52.768;18.262;2023-02-23T07:32:31;17.10;;;8.82;;
59468;SDS011;45277;52.768;18.262;2023-02-23T07:34:03;18.40;;;9.45;;
59468;SDS011;45277;52.768;18.262;2023-02-23T07:35:34;17.95;;;10.55;;
59468;SDS011;45277;52.768;18.262;2023-02-23T07:37:06;18.35;;;9.85;;
59468;SDS011;45277;52.768;18.262;2023-02-23T07:38:37;16.35;;;9.25;;
59468;SDS011;45277;52.768;18.262;2023-02-23T07:40:09;18.25;;;9.13;;
59468;SDS011;45277;52.768;18.262;2023-02-23T07:41:41;17.30;;;10.15;;
59468;SDS011;45277;52.768;18.262;2023-02-23T07:43:12;23.25;;;11.35;;
59468;SDS011;45277;52.768;18.262;2023-02-23T07:44:44;19.48;;;9.30;;
59468;SDS011;45277;52.768;18.262;2023-02-23T07:46:16;17.80;;;10.00;;
59468;SDS011;45277;52.768;18.262;2023-02-23T07:47:47;17.02;;;9.07;;
59468;SDS011;45277;52.768;18.262;2023-02-23T07:49:18;20.35;;;10.30;;
59468;SDS011;45277;52.768;18.262;2023-02-23T07:50:50;16.30;;;8.48;;
59468;SDS011;45277;52.768;18.262;2023-02-23T07:52:22;15.90;;;9.73;;
59468;SDS011;45277;52.768;18.262;2023-02-23T07:53:53;19.83;;;10.63;;
59468;SDS011;45277;52.768;18.262;2023-02-23T07:55:25;22.35;;;10.10;;
59468;SDS011;45277;52.768;18.262;2023-02-23T07:56:57;20.27;;;10.27;;
59468;SDS011;45277;52.768;18.262;2023-02-23T07:58:28;21.05;;;9.23;;
59468;SDS011;45277;52.768;18.262;2023-02-23T08:00:01;16.17;;;8.23;;
59468;SDS011;45277;52.768;18.262;2023-02-23T08:01:33;20.88;;;10.30;;
59468;SDS011;45277;52.768;18.262;2023-02-23T08:03:05;16.73;;;8.10;;
59468;SDS011;45277;52.768;18.262;2023-02-23T08:04:37;17.35;;;10.18;;
59468;SDS011;45277;52.768;18.262;2023-02-23T08:06:10;22.50;;;10.48;;
59468;SDS011;45277;52.768;18.262;2023-02-23T08:07:41;18.17;;;10.43;;
59468;SDS011;45277;52.768;18.262;2023-02-23T08:09:13;14.00;;;8.93;;
59468;SDS011;45277;52.768;18.262;2023-02-23T08:10:44;17.95;;;9.18;;
59468;SDS011;45277;52.768;18.262;2023-02-23T08:12:17;19.13;;;10.55;;
59468;SDS011;45277;52.768;18.262;2023-02-23T08:13:49;14.60;;;8.20;;
59468;SDS011;45277;52.768;18.262;2023-02-23T08:15:20;18.20;;;8.35;;
59468;SDS011;45277;52.768;18.262;2023-02-23T08:16:52;23.02;;;10.20;;
59468;SDS011;45277;52.768;18.262;2023-02-23T08:18:24;24.08;;;8.82;;
59468;SDS011;45277;52.768;18.262;2023-02-23T08:19:55;17.15;;;8.38;;
59468;SDS011;45277;52.768;18.262;2023-02-23T08:21:27;19.05;;;9.32;;
59468;SDS011;45277;52.768;18.262;2023-02-23T08:23:00;17.13;;;9.68;;
59468;SDS011;45277;52.768;18.262;2023-02-23T08:24:32;19.33;;;10.32;;
59468;SDS011;45277;52.768;18.262;2023-02-23T08:26:03;14.32;;;7.28;;
59468;SDS011;45277;52.768;18.262;2023-02-23T08:27:35;19.40;;;10.38;;
59468;SDS011;45277;52.768;18.262;2023-02-23T08:29:08;16.13;;;9.20;;
59468;SDS011;45277;52.768;18.262;2023-02-23T08:30:40;22.77;;;10.70;;
59468;SDS011;45277;52.768;18.262;2023-02-23T08:32:12;14.25;;;8.40;;
59468;SDS011;45277;52.768;18.262;2023-02-23T08:33:43;19.13;;;10.13;;
59468;SDS011;45277;52.768;18.262;2023-02-23T08:35:15;15.68;;;9.43;;
59468;SDS011;45277;52.768;18.262;2023-02-23T08:36:50;17.08;;;9.85;;
59468;SDS011;45277;52.768;18.262;2023-02-23T08:38:23;20.02;;;10.55;;
59468;SDS011;45277;52.768;18.262;2023-02-23T08:39:55;20.08;;;10.40;;
59468;SDS011;45277;52.768;18.262;2023-02-23T08:41:27;19.33;;;10.13;;
59468;SDS011;45277;52.768;18.262;2023-02-23T08:42:59;22.10;;;11.07;;
59468;SDS011;45277;52.768;18.262;2023-02-23T08:44:30;18.30;;;10.25;;
59468;SDS011;45277;52.768;18.262;2023-02-23T08:46:02;17.10;;;9.75;;
59468;SDS011;45277;52.768;18.262;2023-02-23T08:47:33;17.75;;;9.38;;
59468;SDS011;45277;52.768;18.262;2023-02-23T08:49:05;18.38;;;10.40;;
59468;SDS011;45277;52.768;18.262;2023-02-23T08:50:41;19.70;;;9.55;;
59468;SDS011;45277;52.768;18.262;2023-02-23T08:52:12;18.67;;;9.00;;
59468;SDS011;45277;52.768;18.262;2023-02-23T08:53:43;18.40;;;10.23;;
59468;SDS011;45277;52.768;18.262;2023-02-23T08:55:15;16.95;;;9.57;;
59468;SDS011;45277;52.768;18.262;2023-02-23T08:56:48;17.73;;;10.07;;
59468;SDS011;45277;52.768;18.262;2023-02-23T08:58:19;18.25;;;10.27;;
59468;SDS011;45277;52.768;18.262;2023-02-23T08:59:51;18.98;;;9.90;;
59468;SDS011;45277;52.768;18.262;2023-02-23T09:01:22;18.17;;;10.35;;
59468;SDS011;45277;52.768;18.262;2023-02-23T09:02:54;17.02;;;9.82;;
59468;SDS011;45277;52.768;18.262;2023-02-23T09:04:26;18.77;;;10.77;;
59468;SDS011;45277;52.768;18.262;2023-02-23T09:05:58;17.92;;;10.85;;
59468;SDS011;45277;52.768;18.262;2023-02-23T09:07:37;21.70;;;11.65;;
59468;SDS011;45277;52.768;18.262;2023-02-23T09:09:09;22.77;;;11.20;;
59468;SDS011;45277;52.768;18.262;2023-02-23T09:10:41;26.23;;;13.05;;
59468;SDS011;45277;52.768;18.262;2023-02-23T09:12:13;18.95;;;10.75;;
59468;SDS011;45277;52.768;18.262;2023-02-23T09:13:45;18.58;;;10.63;;
59468;SDS011;45277;52.768;18.262;2023-02-23T09:15:17;18.33;;;9.85;;
59468;SDS011;45277;52.768;18.262;2023-02-23T09:16:48;20.58;;;11.35;;
59468;SDS011;45277;52.768;18.262;2023-02-23T09:18:20;25.38;;;10.55;;
59468;SDS011;45277;52.768;18.262;2023-02-23T09:19:53;21.70;;;12.88;;
59468;SDS011;45277;52.768;18.262;2023-02-23T09:21:25;17.33;;;10.57;;
59468;SDS011;45277;52.768;18.262;2023-02-23T09:22:58;17.27;;;9.98;;
59468;SDS011;45277;52.768;18.262;2023-02-23T09:24:30;21.50;;;10.80;;
59468;SDS011;45277;52.768;18.262;2023-02-23T09:26:03;16.58;;;10.00;;
59468;SDS011;45277;52.768;18.262;2023-02-23T09:27:36;27.35;;;11.73;;
59468;SDS011;45277;52.768;18.262;2023-02-23T09:29:08;19.98;;;10.32;;
59468;SDS011;45277;52.768;18.262;2023-02-23T09:30:40;18.05;;;9.70;;
59468;SDS011;45277;52.768;18.262;2023-02-23T09:32:13;21.48;;;10.70;;
59468;SDS011;45277;52.768;18.262;2023-02-23T09:33:44;20.23;;;11.02;;
59468;SDS011;45277;52.768;18.262;2023-02-23T09:35:16;17.95;;;9.40;;
59468;SDS011;45277;52.768;18.262;2023-02-23T09:36:48;20.25;;;9.57;;
59468;SDS011;45277;52.768;18.262;2023-02-23T09:38:21;20.58;;;11.15;;
59468;SDS011;45277;52.768;18.262;2023-02-23T09:39:54;19.33;;;9.77;;
59468;SDS011;45277;52.768;18.262;2023-02-23T09:41:30;19.85;;;11.30;;
59468;SDS011;45277;52.768;18.262;2023-02-23T09:46:44;19.38;;;11.68;;
59468;SDS011;45277;52.768;18.262;2023-02-23T09:48:21;19.90;;;10.98;;
59468;SDS011;45277;52.768;18.262;2023-02-23T09:49:56;22.60;;;11.75;;
59468;SDS011;45277;52.768;18.262;2023-02-23T09:51:35;18.85;;;11.25;;